sensor_id;sensor_type;location;lat;lon;timestamp;temperature;humidity
69225;DHT22;56333;51.306;17.056;2024-01-06T00:00:56;4.26;79.25
69225;DHT22;56333;51.306;17.056;2024-01-06T00:02:20;4.29;79.20
69225;DHT22;56333;51.306;17.056;2024-01-06T00:03:44;4.30;79.00
69225;DHT22;56333;51.306;17.056;2024-01-06T00:05:08;4.30;79.00
69225;DHT22;56333;51.306;17.056;2024-01-06T00:06:32;4.33;78.78
69225;DHT22;56333;51.306;17.056;2024-01-06T00:07:57;4.33;78.53
69225;DHT22;56333;51.306;17.056;2024-01-06T00:09:20;4.33;78.45
69225;DHT22;56333;51.306;17.056;2024-01-06T00:10:44;4.32;78.47
69225;DHT22;56333;51.306;17.056;2024-01-06T00:12:09;4.32;78.47
69225;DHT22;56333;51.306;17.056;2024-01-06T00:13:33;4.36;78.50
69225;DHT22;56333;51.306;17.056;2024-01-06T00:14:57;4.38;78.55
69225;DHT22;56333;51.306;17.056;2024-01-06T00:16:21;4.41;78.47
69225;DHT22;56333;51.306;17.056;2024-01-06T00:17:45;4.46;78.53
69225;DHT22;56333;51.306;17.056;2024-01-06T00:19:09;4.49;78.53
69225;DHT22;56333;51.306;17.056;2024-01-06T00:20:34;4.54;78.40
69225;DHT22;56333;51.306;17.056;2024-01-06T00:21:58;4.57;78.38
69225;DHT22;56333;51.306;17.056;2024-01-06T00:23:22;4.56;78.40
69225;DHT22;56333;51.306;17.056;2024-01-06T00:24:46;4.59;78.38
69225;DHT22;56333;51.306;17.056;2024-01-06T00:26:10;4.61;78.35
69225;DHT22;56333;51.306;17.056;2024-01-06T00:27:35;4.59;78.40
69225;DHT22;56333;51.306;17.056;2024-01-06T00:28:59;4.61;78.30
69225;DHT22;56333;51.306;17.056;2024-01-06T00:30:23;4.63;77.97
69225;DHT22;56333;51.306;17.056;2024-01-06T00:31:47;4.60;77.90
69225;DHT22;56333;51.306;17.056;2024-01-06T00:33:12;4.61;77.78
69225;DHT22;56333;51.306;17.056;2024-01-06T00:34:36;4.59;77.70
69225;DHT22;56333;51.306;17.056;2024-01-06T00:36:01;4.59;77.60
69225;DHT22;56333;51.306;17.056;2024-01-06T00:37:25;4.57;77.57
69225;DHT22;56333;51.306;17.056;2024-01-06T00:38:49;4.57;77.65
69225;DHT22;56333;51.306;17.056;2024-01-06T00:40:14;4.56;77.78
69225;DHT22;56333;51.306;17.056;2024-01-06T00:41:38;4.56;77.78
69225;DHT22;56333;51.306;17.056;2024-01-06T00:43:02;4.57;77.70
69225;DHT22;56333;51.306;17.056;2024-01-06T00:44:27;4.56;77.70
69225;DHT22;56333;51.306;17.056;2024-01-06T00:45:51;4.57;77.63
69225;DHT22;56333;51.306;17.056;2024-01-06T00:47:15;4.57;77.60
69225;DHT22;56333;51.306;17.056;2024-01-06T00:48:40;4.55;77.55
69225;DHT22;56333;51.306;17.056;2024-01-06T00:50:05;4.55;77.53
69225;DHT22;56333;51.306;17.056;2024-01-06T00:51:31;4.53;77.53
69225;DHT22;56333;51.306;17.056;2024-01-06T00:52:55;4.51;77.60
69225;DHT22;56333;51.306;17.056;2024-01-06T00:54:19;4.49;77.70
69225;DHT22;56333;51.306;17.056;2024-01-06T00:55:44;4.47;77.70
69225;DHT22;56333;51.306;17.056;2024-01-06T00:57:07;4.45;77.72
69225;DHT22;56333;51.306;17.056;2024-01-06T00:58:31;4.45;77.70
69225;DHT22;56333;51.306;17.056;2024-01-06T00:59:57;4.43;77.65
69225;DHT22;56333;51.306;17.056;2024-01-06T01:01:21;4.39;77.60
69225;DHT22;56333;51.306;17.056;2024-01-06T01:02:45;4.36;77.57
69225;DHT22;56333;51.306;17.056;2024-01-06T01:04:09;4.32;77.53
69225;DHT22;56333;51.306;17.056;2024-01-06T01:05:33;4.29;77.57
69225;DHT22;56333;51.306;17.056;2024-01-06T01:06:58;4.26;77.70
69225;DHT22;56333;51.306;17.056;2024-01-06T01:08:22;4.24;77.72
69225;DHT22;56333;51.306;17.056;2024-01-06T01:09:46;4.22;77.88
69225;DHT22;56333;51.306;17.056;2024-01-06T01:11:10;4.20;77.95
69225;DHT22;56333;51.306;17.056;2024-01-06T01:12:34;4.18;78.07
69225;DHT22;56333;51.306;17.056;2024-01-06T01:13:59;4.14;78.07
69225;DHT22;56333;51.306;17.056;2024-01-06T01:15:23;4.14;78.30
69225;DHT22;56333;51.306;17.056;2024-01-06T01:16:47;4.15;78.30
69225;DHT22;56333;51.306;17.056;2024-01-06T01:18:12;4.16;78.32
69225;DHT22;56333;51.306;17.056;2024-01-06T01:19:36;4.16;78.22
69225;DHT22;56333;51.306;17.056;2024-01-06T01:21:00;4.13;78.28
69225;DHT22;56333;51.306;17.056;2024-01-06T01:22:25;4.11;78.30
69225;DHT22;56333;51.306;17.056;2024-01-06T01:23:49;4.08;78.20
69225;DHT22;56333;51.306;17.056;2024-01-06T01:25:13;4.05;78.20
69225;DHT22;56333;51.306;17.056;2024-01-06T01:26:37;4.05;78.20
69225;DHT22;56333;51.306;17.056;2024-01-06T01:28:02;4.00;78.25
69225;DHT22;56333;51.306;17.056;2024-01-06T01:29:27;3.99;78.32
69225;DHT22;56333;51.306;17.056;2024-01-06T01:30:51;3.98;78.30
69225;DHT22;56333;51.306;17.056;2024-01-06T01:32:15;3.97;78.28
69225;DHT22;56333;51.306;17.056;2024-01-06T01:33:39;3.96;78.10
69225;DHT22;56333;51.306;17.056;2024-01-06T01:35:03;3.94;78.00
69225;DHT22;56333;51.306;17.056;2024-01-06T01:36:29;3.91;77.95
69225;DHT22;56333;51.306;17.056;2024-01-06T01:37:53;3.90;78.00
69225;DHT22;56333;51.306;17.056;2024-01-06T01:39:18;3.89;77.95
69225;DHT22;56333;51.306;17.056;2024-01-06T01:40:42;3.82;78.05
69225;DHT22;56333;51.306;17.056;2024-01-06T01:42:06;3.78;78.15
69225;DHT22;56333;51.306;17.056;2024-01-06T01:43:30;3.78;78.32
69225;DHT22;56333;51.306;17.056;2024-01-06T01:44:54;3.77;78.40
69225;DHT22;56333;51.306;17.056;2024-01-06T01:46:18;3.76;78.47
69225;DHT22;56333;51.306;17.056;2024-01-06T01:47:42;3.76;78.53
69225;DHT22;56333;51.306;17.056;2024-01-06T01:49:07;3.74;78.55
69225;DHT22;56333;51.306;17.056;2024-01-06T01:50:31;3.75;78.60
69225;DHT22;56333;51.306;17.056;2024-01-06T01:51:56;3.74;78.60
69225;DHT22;56333;51.306;17.056;2024-01-06T01:53:20;3.73;78.55
69225;DHT22;56333;51.306;17.056;2024-01-06T01:54:47;3.73;78.60
69225;DHT22;56333;51.306;17.056;2024-01-06T01:56:11;3.74;78.70
69225;DHT22;56333;51.306;17.056;2024-01-06T01:57:35;3.75;78.70
69225;DHT22;56333;51.306;17.056;2024-01-06T01:59:00;3.75;78.72
69225;DHT22;56333;51.306;17.056;2024-01-06T02:00:28;3.75;78.80
69225;DHT22;56333;51.306;17.056;2024-01-06T02:01:52;3.74;78.80
69225;DHT22;56333;51.306;17.056;2024-01-06T02:03:16;3.77;78.90
69225;DHT22;56333;51.306;17.056;2024-01-06T02:04:41;3.79;78.88
69225;DHT22;56333;51.306;17.056;2024-01-06T02:06:05;3.79;78.90
69225;DHT22;56333;51.306;17.056;2024-01-06T02:07:29;3.81;78.82
69225;DHT22;56333;51.306;17.056;2024-01-06T02:08:52;3.82;78.68
69225;DHT22;56333;51.306;17.056;2024-01-06T02:10:17;3.80;78.50
69225;DHT22;56333;51.306;17.056;2024-01-06T02:11:41;3.79;78.38
69225;DHT22;56333;51.306;17.056;2024-01-06T02:13:10;3.77;78.28
69225;DHT22;56333;51.306;17.056;2024-01-06T02:14:35;3.75;78.20
69225;DHT22;56333;51.306;17.056;2024-01-06T02:15:59;3.73;78.20
69225;DHT22;56333;51.306;17.056;2024-01-06T02:17:23;3.72;78.20
69225;DHT22;56333;51.306;17.056;2024-01-06T02:18:47;3.70;78.20
69225;DHT22;56333;51.306;17.056;2024-01-06T02:20:12;3.69;78.30
69225;DHT22;56333;51.306;17.056;2024-01-06T02:21:37;3.68;78.38
69225;DHT22;56333;51.306;17.056;2024-01-06T02:23:04;3.64;78.38
69225;DHT22;56333;51.306;17.056;2024-01-06T02:24:28;3.60;78.43
69225;DHT22;56333;51.306;17.056;2024-01-06T02:25:53;3.61;78.60
69225;DHT22;56333;51.306;17.056;2024-01-06T02:27:17;3.60;78.63
69225;DHT22;56333;51.306;17.056;2024-01-06T02:28:41;3.60;78.63
69225;DHT22;56333;51.306;17.056;2024-01-06T02:30:11;3.57;78.68
69225;DHT22;56333;51.306;17.056;2024-01-06T02:31:35;3.56;78.78
69225;DHT22;56333;51.306;17.056;2024-01-06T02:33:00;3.56;78.90
69225;DHT22;56333;51.306;17.056;2024-01-06T02:34:24;3.59;78.85
69225;DHT22;56333;51.306;17.056;2024-01-06T02:35:48;3.58;78.80
69225;DHT22;56333;51.306;17.056;2024-01-06T02:37:12;3.58;78.68
69225;DHT22;56333;51.306;17.056;2024-01-06T02:38:36;3.59;78.50
69225;DHT22;56333;51.306;17.056;2024-01-06T02:40:00;3.57;78.32
69225;DHT22;56333;51.306;17.056;2024-01-06T02:41:26;3.58;78.15
69225;DHT22;56333;51.306;17.056;2024-01-06T02:42:50;3.54;78.00
69225;DHT22;56333;51.306;17.056;2024-01-06T02:44:14;3.48;78.05
69225;DHT22;56333;51.306;17.056;2024-01-06T02:45:38;3.42;78.13
69225;DHT22;56333;51.306;17.056;2024-01-06T02:47:03;3.38;78.30
69225;DHT22;56333;51.306;17.056;2024-01-06T02:48:28;3.41;78.47
69225;DHT22;56333;51.306;17.056;2024-01-06T02:49:53;3.41;78.43
69225;DHT22;56333;51.306;17.056;2024-01-06T02:51:17;3.40;78.47
69225;DHT22;56333;51.306;17.056;2024-01-06T02:52:41;3.39;78.50
69225;DHT22;56333;51.306;17.056;2024-01-06T02:54:06;3.33;78.45
69225;DHT22;56333;51.306;17.056;2024-01-06T02:55:30;3.32;78.53
69225;DHT22;56333;51.306;17.056;2024-01-06T02:56:54;3.33;78.60
69225;DHT22;56333;51.306;17.056;2024-01-06T02:58:18;3.31;78.60
69225;DHT22;56333;51.306;17.056;2024-01-06T02:59:42;3.26;78.60
69225;DHT22;56333;51.306;17.056;2024-01-06T03:01:06;3.29;78.65
69225;DHT22;56333;51.306;17.056;2024-01-06T03:02:31;3.30;78.63
69225;DHT22;56333;51.306;17.056;2024-01-06T03:03:55;3.27;78.70
69225;DHT22;56333;51.306;17.056;2024-01-06T03:05:19;3.30;78.65
69225;DHT22;56333;51.306;17.056;2024-01-06T03:06:43;3.31;78.55
69225;DHT22;56333;51.306;17.056;2024-01-06T03:08:13;3.33;78.40
69225;DHT22;56333;51.306;17.056;2024-01-06T03:09:37;3.32;78.28
69225;DHT22;56333;51.306;17.056;2024-01-06T03:11:02;3.31;78.13
69225;DHT22;56333;51.306;17.056;2024-01-06T03:12:27;3.29;78.07
69225;DHT22;56333;51.306;17.056;2024-01-06T03:13:52;3.28;78.10
69225;DHT22;56333;51.306;17.056;2024-01-06T03:15:16;3.26;78.20
69225;DHT22;56333;51.306;17.056;2024-01-06T03:16:40;3.24;78.30
69225;DHT22;56333;51.306;17.056;2024-01-06T03:18:05;3.23;78.40
69225;DHT22;56333;51.306;17.056;2024-01-06T03:19:30;3.21;78.40
69225;DHT22;56333;51.306;17.056;2024-01-06T03:20:54;3.19;78.53
69225;DHT22;56333;51.306;17.056;2024-01-06T03:22:19;3.22;78.68
69225;DHT22;56333;51.306;17.056;2024-01-06T03:23:43;3.25;78.65
69225;DHT22;56333;51.306;17.056;2024-01-06T03:25:08;3.23;78.60
69225;DHT22;56333;51.306;17.056;2024-01-06T03:26:32;3.21;78.68
69225;DHT22;56333;51.306;17.056;2024-01-06T03:27:56;3.23;78.72
69225;DHT22;56333;51.306;17.056;2024-01-06T03:29:21;3.26;78.70
69225;DHT22;56333;51.306;17.056;2024-01-06T03:30:45;3.28;78.63
69225;DHT22;56333;51.306;17.056;2024-01-06T03:32:09;3.27;78.50
69225;DHT22;56333;51.306;17.056;2024-01-06T03:33:32;3.29;78.47
69225;DHT22;56333;51.306;17.056;2024-01-06T03:34:57;3.29;78.40
69225;DHT22;56333;51.306;17.056;2024-01-06T03:36:21;3.29;78.30
69225;DHT22;56333;51.306;17.056;2024-01-06T03:37:45;3.24;78.32
69225;DHT22;56333;51.306;17.056;2024-01-06T03:39:09;3.24;78.18
69225;DHT22;56333;51.306;17.056;2024-01-06T03:40:34;3.21;78.10
69225;DHT22;56333;51.306;17.056;2024-01-06T03:41:59;3.17;78.07
69225;DHT22;56333;51.306;17.056;2024-01-06T03:43:25;3.13;78.20
69225;DHT22;56333;51.306;17.056;2024-01-06T03:44:49;3.09;78.32
69225;DHT22;56333;51.306;17.056;2024-01-06T03:46:13;3.13;78.60
69225;DHT22;56333;51.306;17.056;2024-01-06T03:47:37;3.13;78.57
69225;DHT22;56333;51.306;17.056;2024-01-06T03:49:01;3.12;78.57
69225;DHT22;56333;51.306;17.056;2024-01-06T03:50:26;3.13;78.78
69225;DHT22;56333;51.306;17.056;2024-01-06T03:51:50;3.15;78.82
69225;DHT22;56333;51.306;17.056;2024-01-06T03:53:14;3.16;78.80
69225;DHT22;56333;51.306;17.056;2024-01-06T03:54:38;3.18;78.72
69225;DHT22;56333;51.306;17.056;2024-01-06T03:56:05;3.16;78.70
69225;DHT22;56333;51.306;17.056;2024-01-06T03:57:29;3.13;78.75
69225;DHT22;56333;51.306;17.056;2024-01-06T03:58:53;3.12;78.85
69225;DHT22;56333;51.306;17.056;2024-01-06T04:00:19;3.13;78.90
69225;DHT22;56333;51.306;17.056;2024-01-06T04:01:43;3.14;78.75
69225;DHT22;56333;51.306;17.056;2024-01-06T04:03:08;3.16;78.75
69225;DHT22;56333;51.306;17.056;2024-01-06T04:04:32;3.15;78.68
69225;DHT22;56333;51.306;17.056;2024-01-06T04:05:56;3.13;78.70
69225;DHT22;56333;51.306;17.056;2024-01-06T04:07:21;3.13;78.55
69225;DHT22;56333;51.306;17.056;2024-01-06T04:08:45;3.11;78.38
69225;DHT22;56333;51.306;17.056;2024-01-06T04:10:09;3.05;78.35
69225;DHT22;56333;51.306;17.056;2024-01-06T04:11:33;3.05;78.30
69225;DHT22;56333;51.306;17.056;2024-01-06T04:12:57;2.99;78.40
69225;DHT22;56333;51.306;17.056;2024-01-06T04:14:22;3.00;78.40
69225;DHT22;56333;51.306;17.056;2024-01-06T04:15:46;2.96;78.50
69225;DHT22;56333;51.306;17.056;2024-01-06T04:17:10;2.95;78.57
69225;DHT22;56333;51.306;17.056;2024-01-06T04:18:34;2.94;78.72
69225;DHT22;56333;51.306;17.056;2024-01-06T04:19:58;2.99;78.85
69225;DHT22;56333;51.306;17.056;2024-01-06T04:21:23;3.04;78.80
69225;DHT22;56333;51.306;17.056;2024-01-06T04:22:46;3.06;78.72
69225;DHT22;56333;51.306;17.056;2024-01-06T04:24:11;3.10;78.63
69225;DHT22;56333;51.306;17.056;2024-01-06T04:25:35;3.11;78.60
69225;DHT22;56333;51.306;17.056;2024-01-06T04:26:59;3.11;78.57
69225;DHT22;56333;51.306;17.056;2024-01-06T04:28:23;3.08;78.63
69225;DHT22;56333;51.306;17.056;2024-01-06T04:29:47;3.12;78.70
69225;DHT22;56333;51.306;17.056;2024-01-06T04:31:14;3.12;78.43
69225;DHT22;56333;51.306;17.056;2024-01-06T04:32:39;3.14;78.40
69225;DHT22;56333;51.306;17.056;2024-01-06T04:34:03;3.14;78.28
69225;DHT22;56333;51.306;17.056;2024-01-06T04:35:26;3.14;78.15
69225;DHT22;56333;51.306;17.056;2024-01-06T04:36:50;3.13;78.00
69225;DHT22;56333;51.306;17.056;2024-01-06T04:38:15;3.08;78.10
69225;DHT22;56333;51.306;17.056;2024-01-06T04:39:39;3.04;78.07
69225;DHT22;56333;51.306;17.056;2024-01-06T04:41:03;3.03;78.00
69225;DHT22;56333;51.306;17.056;2024-01-06T04:42:27;3.01;77.95
69225;DHT22;56333;51.306;17.056;2024-01-06T04:43:52;3.02;78.03
69225;DHT22;56333;51.306;17.056;2024-01-06T04:45:15;3.02;78.03
69225;DHT22;56333;51.306;17.056;2024-01-06T04:46:41;3.03;78.00
69225;DHT22;56333;51.306;17.056;2024-01-06T04:48:07;3.04;78.07
69225;DHT22;56333;51.306;17.056;2024-01-06T04:49:31;3.02;78.15
69225;DHT22;56333;51.306;17.056;2024-01-06T04:50:55;3.03;78.20
69225;DHT22;56333;51.306;17.056;2024-01-06T04:52:19;3.01;78.20
69225;DHT22;56333;51.306;17.056;2024-01-06T04:53:43;3.01;78.32
69225;DHT22;56333;51.306;17.056;2024-01-06T04:55:08;3.04;78.40
69225;DHT22;56333;51.306;17.056;2024-01-06T04:56:32;3.07;78.20
69225;DHT22;56333;51.306;17.056;2024-01-06T04:57:56;3.06;78.28
69225;DHT22;56333;51.306;17.056;2024-01-06T04:59:20;3.07;78.30
69225;DHT22;56333;51.306;17.056;2024-01-06T05:00:44;3.07;78.32
69225;DHT22;56333;51.306;17.056;2024-01-06T05:02:08;3.11;78.30
69225;DHT22;56333;51.306;17.056;2024-01-06T05:03:33;3.12;78.20
69225;DHT22;56333;51.306;17.056;2024-01-06T05:04:57;3.15;78.00
69225;DHT22;56333;51.306;17.056;2024-01-06T05:06:23;3.18;77.82
69225;DHT22;56333;51.306;17.056;2024-01-06T05:07:47;3.19;77.70
69225;DHT22;56333;51.306;17.056;2024-01-06T05:09:11;3.18;77.60
69225;DHT22;56333;51.306;17.056;2024-01-06T05:10:35;3.15;77.75
69225;DHT22;56333;51.306;17.056;2024-01-06T05:12:00;3.14;77.90
69225;DHT22;56333;51.306;17.056;2024-01-06T05:13:24;3.15;77.70
69225;DHT22;56333;51.306;17.056;2024-01-06T05:14:48;3.17;77.68
69225;DHT22;56333;51.306;17.056;2024-01-06T05:16:12;3.19;77.60
69225;DHT22;56333;51.306;17.056;2024-01-06T05:17:37;3.21;77.60
69225;DHT22;56333;51.306;17.056;2024-01-06T05:19:00;3.19;77.65
69225;DHT22;56333;51.306;17.056;2024-01-06T05:20:24;3.21;77.65
69225;DHT22;56333;51.306;17.056;2024-01-06T05:21:51;3.22;77.70
69225;DHT22;56333;51.306;17.056;2024-01-06T05:23:15;3.23;77.75
69225;DHT22;56333;51.306;17.056;2024-01-06T05:24:39;3.22;77.80
69225;DHT22;56333;51.306;17.056;2024-01-06T05:26:04;3.21;77.82
69225;DHT22;56333;51.306;17.056;2024-01-06T05:27:28;3.24;77.85
69225;DHT22;56333;51.306;17.056;2024-01-06T05:28:53;3.26;77.70
69225;DHT22;56333;51.306;17.056;2024-01-06T05:30:17;3.29;77.70
69225;DHT22;56333;51.306;17.056;2024-01-06T05:31:41;3.30;77.63
69225;DHT22;56333;51.306;17.056;2024-01-06T05:33:05;3.34;77.70
69225;DHT22;56333;51.306;17.056;2024-01-06T05:34:34;3.36;77.57
69225;DHT22;56333;51.306;17.056;2024-01-06T05:35:58;3.36;77.53
69225;DHT22;56333;51.306;17.056;2024-01-06T05:37:22;3.39;77.38
69225;DHT22;56333;51.306;17.056;2024-01-06T05:38:46;3.40;77.20
69225;DHT22;56333;51.306;17.056;2024-01-06T05:40:11;3.40;77.10
69225;DHT22;56333;51.306;17.056;2024-01-06T05:41:40;3.41;76.95
69225;DHT22;56333;51.306;17.056;2024-01-06T05:43:04;3.42;76.88
69225;DHT22;56333;51.306;17.056;2024-01-06T05:44:28;3.42;76.88
69225;DHT22;56333;51.306;17.056;2024-01-06T05:45:53;3.38;76.85
69225;DHT22;56333;51.306;17.056;2024-01-06T05:47:17;3.40;76.95
69225;DHT22;56333;51.306;17.056;2024-01-06T05:48:41;3.39;76.90
69225;DHT22;56333;51.306;17.056;2024-01-06T05:50:08;3.38;76.97
69225;DHT22;56333;51.306;17.056;2024-01-06T05:51:33;3.38;76.95
69225;DHT22;56333;51.306;17.056;2024-01-06T05:52:57;3.35;77.05
69225;DHT22;56333;51.306;17.056;2024-01-06T05:54:21;3.35;77.10
69225;DHT22;56333;51.306;17.056;2024-01-06T05:55:45;3.38;77.07
69225;DHT22;56333;51.306;17.056;2024-01-06T05:57:09;3.37;77.07
69225;DHT22;56333;51.306;17.056;2024-01-06T05:58:34;3.38;77.20
69225;DHT22;56333;51.306;17.056;2024-01-06T05:59:58;3.40;77.05
69225;DHT22;56333;51.306;17.056;2024-01-06T06:01:22;3.39;76.90
69225;DHT22;56333;51.306;17.056;2024-01-06T06:02:46;3.38;76.82
69225;DHT22;56333;51.306;17.056;2024-01-06T06:04:11;3.37;76.80
69225;DHT22;56333;51.306;17.056;2024-01-06T06:05:35;3.33;77.00
69225;DHT22;56333;51.306;17.056;2024-01-06T06:07:00;3.31;77.10
69225;DHT22;56333;51.306;17.056;2024-01-06T06:08:24;3.32;76.90
69225;DHT22;56333;51.306;17.056;2024-01-06T06:09:50;3.30;77.00
69225;DHT22;56333;51.306;17.056;2024-01-06T06:11:15;3.31;76.93
69225;DHT22;56333;51.306;17.056;2024-01-06T06:12:39;3.32;76.90
69225;DHT22;56333;51.306;17.056;2024-01-06T06:14:03;3.33;76.82
69225;DHT22;56333;51.306;17.056;2024-01-06T06:15:27;3.36;76.88
69225;DHT22;56333;51.306;17.056;2024-01-06T06:16:51;3.38;76.85
69225;DHT22;56333;51.306;17.056;2024-01-06T06:18:16;3.36;76.90
69225;DHT22;56333;51.306;17.056;2024-01-06T06:19:40;3.34;77.05
69225;DHT22;56333;51.306;17.056;2024-01-06T06:21:05;3.38;77.00
69225;DHT22;56333;51.306;17.056;2024-01-06T06:22:30;3.42;76.97
69225;DHT22;56333;51.306;17.056;2024-01-06T06:23:56;3.40;77.03
69225;DHT22;56333;51.306;17.056;2024-01-06T06:25:20;3.41;76.90
69225;DHT22;56333;51.306;17.056;2024-01-06T06:26:44;3.45;76.85
69225;DHT22;56333;51.306;17.056;2024-01-06T06:28:09;3.46;76.68
69225;DHT22;56333;51.306;17.056;2024-01-06T06:29:33;3.48;76.53
69225;DHT22;56333;51.306;17.056;2024-01-06T06:30:57;3.48;76.40
69225;DHT22;56333;51.306;17.056;2024-01-06T06:32:21;3.51;76.40
69225;DHT22;56333;51.306;17.056;2024-01-06T06:33:46;3.49;76.30
69225;DHT22;56333;51.306;17.056;2024-01-06T06:35:10;3.45;76.45
69225;DHT22;56333;51.306;17.056;2024-01-06T06:36:35;3.47;76.40
69225;DHT22;56333;51.306;17.056;2024-01-06T06:37:59;3.44;76.55
69225;DHT22;56333;51.306;17.056;2024-01-06T06:39:23;3.45;76.60
69225;DHT22;56333;51.306;17.056;2024-01-06T06:40:49;3.45;76.47
69225;DHT22;56333;51.306;17.056;2024-01-06T06:42:13;3.45;76.40
69225;DHT22;56333;51.306;17.056;2024-01-06T06:43:37;3.42;76.53
69225;DHT22;56333;51.306;17.056;2024-01-06T06:45:01;3.41;76.57
69225;DHT22;56333;51.306;17.056;2024-01-06T06:46:27;3.41;76.50
69225;DHT22;56333;51.306;17.056;2024-01-06T06:47:51;3.44;76.60
69225;DHT22;56333;51.306;17.056;2024-01-06T06:49:15;3.46;76.60
69225;DHT22;56333;51.306;17.056;2024-01-06T06:50:39;3.51;76.45
69225;DHT22;56333;51.306;17.056;2024-01-06T06:52:04;3.49;76.25
69225;DHT22;56333;51.306;17.056;2024-01-06T06:53:29;3.49;76.15
69225;DHT22;56333;51.306;17.056;2024-01-06T06:54:53;3.47;75.97
69225;DHT22;56333;51.306;17.056;2024-01-06T06:56:17;3.44;75.97
69225;DHT22;56333;51.306;17.056;2024-01-06T06:57:41;3.45;76.07
69225;DHT22;56333;51.306;17.056;2024-01-06T06:59:05;3.40;76.15
69225;DHT22;56333;51.306;17.056;2024-01-06T07:00:29;3.37;76.32
69225;DHT22;56333;51.306;17.056;2024-01-06T07:01:53;3.38;76.40
69225;DHT22;56333;51.306;17.056;2024-01-06T07:03:17;3.38;76.47
69225;DHT22;56333;51.306;17.056;2024-01-06T07:04:40;3.36;76.53
69225;DHT22;56333;51.306;17.056;2024-01-06T07:06:05;3.37;76.50
69225;DHT22;56333;51.306;17.056;2024-01-06T07:07:29;3.40;76.40
69225;DHT22;56333;51.306;17.056;2024-01-06T07:08:54;3.42;76.40
69225;DHT22;56333;51.306;17.056;2024-01-06T07:10:18;3.43;76.40
69225;DHT22;56333;51.306;17.056;2024-01-06T07:11:43;3.40;76.43
69225;DHT22;56333;51.306;17.056;2024-01-06T07:13:07;3.42;76.50
69225;DHT22;56333;51.306;17.056;2024-01-06T07:14:31;3.44;76.43
69225;DHT22;56333;51.306;17.056;2024-01-06T07:15:57;3.45;76.20
69225;DHT22;56333;51.306;17.056;2024-01-06T07:17:21;3.44;76.15
69225;DHT22;56333;51.306;17.056;2024-01-06T07:18:45;3.44;75.97
69225;DHT22;56333;51.306;17.056;2024-01-06T07:20:10;3.43;75.93
69225;DHT22;56333;51.306;17.056;2024-01-06T07:21:34;3.40;75.75
69225;DHT22;56333;51.306;17.056;2024-01-06T07:22:59;3.39;75.78
69225;DHT22;56333;51.306;17.056;2024-01-06T07:24:24;3.34;75.78
69225;DHT22;56333;51.306;17.056;2024-01-06T07:25:49;3.28;75.93
69225;DHT22;56333;51.306;17.056;2024-01-06T07:27:13;3.22;76.20
69225;DHT22;56333;51.306;17.056;2024-01-06T07:28:37;3.22;76.43
69225;DHT22;56333;51.306;17.056;2024-01-06T07:30:01;3.23;76.53
69225;DHT22;56333;51.306;17.056;2024-01-06T07:31:25;3.22;76.60
69225;DHT22;56333;51.306;17.056;2024-01-06T07:32:51;3.20;76.63
69225;DHT22;56333;51.306;17.056;2024-01-06T07:34:14;3.15;76.70
69225;DHT22;56333;51.306;17.056;2024-01-06T07:35:39;3.13;76.88
69225;DHT22;56333;51.306;17.056;2024-01-06T07:37:05;3.11;77.03
69225;DHT22;56333;51.306;17.056;2024-01-06T07:38:29;3.09;77.18
69225;DHT22;56333;51.306;17.056;2024-01-06T07:39:53;3.09;77.20
69225;DHT22;56333;51.306;17.056;2024-01-06T07:41:17;3.10;77.22
69225;DHT22;56333;51.306;17.056;2024-01-06T07:42:41;3.08;77.20
69225;DHT22;56333;51.306;17.056;2024-01-06T07:44:05;3.08;77.25
69225;DHT22;56333;51.306;17.056;2024-01-06T07:45:29;3.06;77.20
69225;DHT22;56333;51.306;17.056;2024-01-06T07:46:54;2.99;77.22
69225;DHT22;56333;51.306;17.056;2024-01-06T07:48:18;2.95;77.30
69225;DHT22;56333;51.306;17.056;2024-01-06T07:49:42;2.93;77.30
69225;DHT22;56333;51.306;17.056;2024-01-06T07:51:06;2.92;77.30
69225;DHT22;56333;51.306;17.056;2024-01-06T07:52:31;2.88;77.40
69225;DHT22;56333;51.306;17.056;2024-01-06T07:53:55;2.83;77.55
69225;DHT22;56333;51.306;17.056;2024-01-06T07:55:19;2.83;77.63
69225;DHT22;56333;51.306;17.056;2024-01-06T07:56:43;2.83;77.78
69225;DHT22;56333;51.306;17.056;2024-01-06T07:58:08;2.81;77.88
69225;DHT22;56333;51.306;17.056;2024-01-06T07:59:33;2.79;77.93
69225;DHT22;56333;51.306;17.056;2024-01-06T08:00:57;2.80;78.07
69225;DHT22;56333;51.306;17.056;2024-01-06T08:02:21;2.76;78.03
69225;DHT22;56333;51.306;17.056;2024-01-06T08:03:45;2.76;78.32
69225;DHT22;56333;51.306;17.056;2024-01-06T08:05:09;2.72;78.32
69225;DHT22;56333;51.306;17.056;2024-01-06T08:06:33;2.73;78.55
69225;DHT22;56333;51.306;17.056;2024-01-06T08:07:58;2.73;78.63
69225;DHT22;56333;51.306;17.056;2024-01-06T08:09:22;2.72;78.63
69225;DHT22;56333;51.306;17.056;2024-01-06T08:10:46;2.73;78.72
69225;DHT22;56333;51.306;17.056;2024-01-06T08:12:10;2.72;78.82
69225;DHT22;56333;51.306;17.056;2024-01-06T08:13:35;2.70;78.75
69225;DHT22;56333;51.306;17.056;2024-01-06T08:14:59;2.71;78.93
69225;DHT22;56333;51.306;17.056;2024-01-06T08:16:23;2.71;78.93
69225;DHT22;56333;51.306;17.056;2024-01-06T08:17:47;2.69;78.93
69225;DHT22;56333;51.306;17.056;2024-01-06T08:19:11;2.68;78.90
69225;DHT22;56333;51.306;17.056;2024-01-06T08:20:36;2.69;78.95
69225;DHT22;56333;51.306;17.056;2024-01-06T08:22:00;2.65;78.90
69225;DHT22;56333;51.306;17.056;2024-01-06T08:23:24;2.65;79.03
69225;DHT22;56333;51.306;17.056;2024-01-06T08:24:48;2.60;78.95
69225;DHT22;56333;51.306;17.056;2024-01-06T08:26:13;2.63;79.15
69225;DHT22;56333;51.306;17.056;2024-01-06T08:27:37;2.62;79.13
69225;DHT22;56333;51.306;17.056;2024-01-06T08:29:01;2.66;79.30
69225;DHT22;56333;51.306;17.056;2024-01-06T08:30:25;2.66;79.30
69225;DHT22;56333;51.306;17.056;2024-01-06T08:31:48;2.64;79.20
69225;DHT22;56333;51.306;17.056;2024-01-06T08:33:14;2.65;79.18
69225;DHT22;56333;51.306;17.056;2024-01-06T08:34:39;2.64;79.07
69225;DHT22;56333;51.306;17.056;2024-01-06T08:36:04;2.64;79.00
69225;DHT22;56333;51.306;17.056;2024-01-06T08:37:30;2.61;78.90
69225;DHT22;56333;51.306;17.056;2024-01-06T08:38:56;2.56;79.00
69225;DHT22;56333;51.306;17.056;2024-01-06T08:40:20;2.50;79.05
69225;DHT22;56333;51.306;17.056;2024-01-06T08:41:44;2.48;79.20
69225;DHT22;56333;51.306;17.056;2024-01-06T08:43:08;2.48;79.32
69225;DHT22;56333;51.306;17.056;2024-01-06T08:44:34;2.51;79.50
69225;DHT22;56333;51.306;17.056;2024-01-06T08:45:59;2.48;79.50
69225;DHT22;56333;51.306;17.056;2024-01-06T08:47:24;2.51;79.57
69225;DHT22;56333;51.306;17.056;2024-01-06T08:48:48;2.54;79.65
69225;DHT22;56333;51.306;17.056;2024-01-06T08:50:12;2.54;79.80
69225;DHT22;56333;51.306;17.056;2024-01-06T08:51:36;2.50;79.70
69225;DHT22;56333;51.306;17.056;2024-01-06T08:53:00;2.54;79.88